Time;durP1;ratioP1;P1;durP2;ratioP2;P2;SDS_P1;SDS_P2;PMS_P1;PMS_P2;Temp;Humidity;BMP_temperature;BMP_pressure;BME280_temperature;BME280_humidity;BME280_pressure;Samples;Min_cycle;Max_cycle;Signal;HPM_P1;HPM_P2
2022/04/13 00:02:16;;;;;;;13.88;8.63;;;;;;;6.08;52.10;100694.06;5015001;28;20026;-76
2022/04/13 00:04:42;;;;;;;16.92;8.75;;;;;;;6.10;51.50;100707.78;5014890;28;20116;-77
2022/04/13 00:07:08;;;;;;;20.85;9.68;;;;;;;6.15;51.64;100714.94;5015195;28;20108;-76
2022/04/13 00:09:35;;;;;;;16.38;9.30;;;;;;;6.06;51.86;100707.06;5016422;28;20458;-75
2022/04/13 00:12:06;;;;;;;17.30;9.30;;;;;;;6.08;52.30;100710.22;5016069;28;20479;-76
2022/04/13 00:14:31;;;;;;;24.30;9.27;;;;;;;6.06;51.88;100713.53;5015912;28;20036;-76
2022/04/13 00:16:56;;;;;;;15.15;9.40;;;;;;;6.08;52.31;100701.75;5016083;28;20025;-77
2022/04/13 00:19:24;;;;;;;18.25;9.38;;;;;;;6.05;52.32;100709.09;4982335;28;20458;-76
2022/04/13 00:21:53;;;;;;;19.10;10.10;;;;;;;6.02;52.39;100700.66;5015762;28;20033;-76
2022/04/13 00:24:20;;;;;;;23.85;10.35;;;;;;;5.96;53.01;100700.41;5011979;28;20041;-76
2022/04/13 00:26:46;;;;;;;18.52;10.85;;;;;;;5.98;53.14;100712.06;5015207;28;20404;-76
2022/04/13 00:29:11;;;;;;;19.73;10.57;;;;;;;5.93;53.05;100709.75;4998010;28;20126;-76
2022/04/13 00:31:38;;;;;;;16.52;9.93;;;;;;;5.93;53.15;100709.75;5015896;28;20061;-78
2022/04/13 00:34:04;;;;;;;15.70;9.85;;;;;;;5.86;53.04;100709.09;5015796;28;20044;-78
2022/04/13 00:36:29;;;;;;;17.75;9.65;;;;;;;5.87;53.01;100705.06;5014344;28;20025;-77
2022/04/13 00:38:55;;;;;;;18.58;9.77;;;;;;;5.85;53.22;100716.78;5014198;28;20033;-76
2022/04/13 00:41:21;;;;;;;19.08;10.63;;;;;;;5.74;53.45;100693.59;5015593;28;20025;-77
2022/04/13 00:44:06;;;;;;;19.17;10.52;;;;;;;5.76;54.84;100710.94;4997910;28;20036;-76
2022/04/13 00:46:32;;;;;;;20.38;10.10;;;;;;;5.72;54.99;100710.22;4982345;28;20034;-76
2022/04/13 00:48:57;;;;;;;20.23;10.20;;;;;;;5.68;54.81;100712.28;5015285;28;20390;-77
2022/04/13 00:51:23;;;;;;;21.95;11.43;;;;;;;5.60;54.23;100703.19;5014017;28;20028;-76
2022/04/13 00:53:51;;;;;;;20.50;11.07;;;;;;;5.64;55.53;100711.56;5013794;28;20200;-77
2022/04/13 00:56:23;;;;;;;20.08;11.70;;;;;;;5.64;54.87;100708.75;4997437;28;20064;-76
2022/04/13 00:59:01;;;;;;;23.02;11.95;;;;;;;5.63;54.94;100713.59;4998421;28;20061;-76
2022/04/13 01:01:42;;;;;;;21.73;11.57;;;;;;;5.63;55.45;100712.78;4997679;28;20044;-75
2022/04/13 01:04:10;;;;;;;;;;;;;;;5.56;55.91;100712.97;5015448;28;20479;-76
2022/04/13 01:06:37;;;;;;;20.30;11.77;;;;;;;5.52;55.34;100712.25;5013843;28;19913;-77
2022/04/13 01:09:05;;;;;;;20.17;11.48;;;;;;;5.50;55.36;100715.50;5014112;28;20033;-78
2022/04/13 01:11:32;;;;;;;28.17;12.25;;;;;;;5.46;56.03;100717.59;5015113;28;20026;-77
2022/04/13 01:13:58;;;;;;;21.60;12.27;;;;;;;5.46;55.46;100713.97;5014815;28;20029;-76
2022/04/13 01:16:28;;;;;;;23.45;12.77;;;;;;;5.42;55.68;100727.38;5013429;28;20084;-78
2022/04/13 01:18:54;;;;;;;28.67;13.43;;;;;;;5.41;55.85;100723.75;4997458;28;20053;-77
2022/04/13 01:21:45;;;;;;;26.00;14.05;;;;;;;5.35;56.63;100722.66;4997077;28;20029;-77
2022/04/13 01:24:11;;;;;;;22.92;12.48;;;;;;;5.27;56.25;100712.72;5013412;28;20088;-77
2022/04/13 01:26:37;;;;;;;21.80;12.68;;;;;;;5.29;56.56;100720.75;5027976;28;20120;-77
2022/04/13 01:29:04;;;;;;;28.08;14.20;;;;;;;5.27;56.06;100711.94;5014868;28;20034;-77
2022/04/13 01:31:30;;;;;;;22.60;13.13;;;;;;;5.23;56.59;100717.63;5013437;28;20053;-77
2022/04/13 01:33:57;;;;;;;25.40;14.20;;;;;;;5.18;56.78;100712.50;5029749;28;20442;-77
2022/04/13 01:36:24;;;;;;;29.65;14.55;;;;;;;5.17;57.21;100722.19;5013510;28;20057;-77
2022/04/13 01:38:50;;;;;;;23.70;13.77;;;;;;;5.12;57.37;100715.03;4996893;28;20061;-77
2022/04/13 01:41:15;;;;;;;27.77;13.63;;;;;;;5.15;58.29;100728.28;5013023;28;20514;-78
2022/04/13 01:43:42;;;;;;;26.23;14.45;;;;;;;5.14;58.12;100725.88;5014656;28;20395;-77
2022/04/13 01:46:07;;;;;;;28.23;15.40;;;;;;;5.14;58.22;100723.84;5014310;28;20022;-76
2022/04/13 01:48:32;;;;;;;27.88;14.77;;;;;;;5.11;58.04;100704.16;5014216;28;20440;-76
2022/04/13 01:50:58;;;;;;;29.42;13.98;;;;;;;5.14;57.81;100726.66;5029421;28;20037;-76
2022/04/13 01:53:38;;;;;;;24.98;14.27;;;;;;;5.13;58.71;100713.78;4996165;28;20567;-78
2022/04/13 01:56:05;;;;;;;27.80;14.35;;;;;;;5.12;57.96;100719.88;5013124;28;20506;-75
2022/04/13 01:58:31;;;;;;;30.25;14.73;;;;;;;5.14;58.44;100723.84;5014292;28;20030;-78
2022/04/13 02:00:58;;;;;;;28.08;16.13;;;;;;;5.14;58.63;100718.19;4996916;28;20026;-76
2022/04/13 02:03:25;;;;;;;30.52;15.18;;;;;;;5.06;59.46;100713.94;5014214;28;20026;-76
2022/04/13 02:05:56;;;;;;;27.52;14.95;;;;;;;5.14;58.62;100712.56;5014132;28;20502;-76
2022/04/13 02:08:22;;;;;;;30.90;14.45;;;;;;;5.13;59.11;100713.78;4980043;28;20041;-76
2022/04/13 02:10:50;;;;;;;25.67;14.30;;;;;;;5.06;59.48;100711.09;5012804;28;20471;-77
2022/04/13 02:13:16;;;;;;;26.35;14.77;;;;;;;4.99;59.54;100714.03;4980146;28;20045;-76
2022/04/13 02:15:42;;;;;;;28.77;15.30;;;;;;;4.95;59.79;100718.97;5028621;28;20479;-77
2022/04/13 02:18:08;;;;;;;29.60;16.38;;;;;;;4.95;59.79;100721.78;5013663;28;20048;-77
2022/04/13 02:20:35;;;;;;;28.83;15.82;;;;;;;4.84;60.10;100709.06;5013843;28;20394;-78
2022/04/13 02:23:01;;;;;;;38.25;17.10;;;;;;;4.78;60.70;100717.25;5012479;28;20025;-75
2022/04/13 02:25:28;;;;;;;30.77;17.05;;;;;;;4.71;60.55;100711.72;4996207;28;20391;-77
2022/04/13 02:27:56;;;;;;;26.25;16.45;;;;;;;4.63;61.14;100713.09;5012699;28;20034;-76
2022/04/13 02:30:23;;;;;;;26.30;15.60;;;;;;;4.68;60.77;100712.59;5013991;28;20080;-77
2022/04/13 02:32:49;;;;;;;30.40;16.80;;;;;;;4.72;61.04;100719.78;5012426;28;20068;-76
2022/04/13 02:35:16;;;;;;;27.92;16.63;;;;;;;4.67;61.10;100716.63;5013823;28;20033;-78
2022/04/13 02:37:43;;;;;;;29.38;16.77;;;;;;;4.69;60.61;100719.81;4995880;28;20040;-78
2022/04/13 02:40:12;;;;;;;31.88;17.90;;;;;;;4.63;61.25;100722.34;4996694;28;20032;-76
2022/04/13 02:42:39;;;;;;;27.77;17.33;;;;;;;4.66;60.33;100734.78;5014169;28;20026;-77
2022/04/13 02:45:06;;;;;;;31.63;17.88;;;;;;;4.58;60.61;100719.22;4995966;28;20493;-76
2022/04/13 02:47:39;;;;;;;31.33;16.80;;;;;;;4.63;60.86;100730.00;5012196;28;20108;-77
2022/04/13 02:50:10;;;;;;;32.33;17.08;;;;;;;4.58;60.80;100719.22;5012353;28;20116;-75
2022/04/13 02:52:35;;;;;;;35.00;18.42;;;;;;;4.50;61.40;100721.34;5011906;28;20045;-78
2022/04/13 02:55:03;;;;;;;34.30;17.98;;;;;;;4.49;61.72;100722.56;4995725;28;20092;-76
2022/04/13 02:57:29;;;;;;;30.40;16.95;;;;;;;4.40;61.86;100715.88;5012224;28;20436;-75
2022/04/13 02:59:55;;;;;;;31.58;17.55;;;;;;;4.38;62.18;100724.78;4995725;28;20041;-76
2022/04/13 03:02:22;;;;;;;30.90;17.50;;;;;;;4.34;61.53;100730.44;5012132;28;20091;-77
2022/04/13 03:04:49;;;;;;;29.17;17.50;;;;;;;4.20;63.03;100719.38;5013276;28;20360;-77
2022/04/13 03:07:17;;;;;;;31.45;17.30;;;;;;;4.27;62.18;100729.75;5012235;28;20058;-76
2022/04/13 03:09:42;;;;;;;31.20;18.02;;;;;;;4.19;62.49;100717.78;4999717;28;20036;-76
2022/04/13 03:12:12;;;;;;;36.75;19.25;;;;;;;4.19;62.76;100719.84;4999517;28;20022;-76
2022/04/13 03:14:38;;;;;;;36.30;17.60;;;;;;;4.24;62.58;100730.63;4999797;28;20034;-75
2022/04/13 03:17:18;;;;;;;29.25;16.98;;;;;;;4.21;62.92;100734.28;4999636;28;20073;-77
2022/04/13 03:19:44;;;;;;;33.63;18.50;;;;;;;4.16;62.23;100734.75;5015878;28;20113;-77
2022/04/13 03:22:10;;;;;;;34.40;18.05;;;;;;;4.14;63.23;100728.75;5015993;28;20379;-77
2022/04/13 03:24:36;;;;;;;34.45;17.75;;;;;;;4.10;62.90;100737.25;4999473;28;20486;-78
2022/04/13 03:27:03;;;;;;;37.60;19.40;;;;;;;4.08;63.20;100741.72;5016140;28;20105;-78
2022/04/13 03:29:29;;;;;;;31.30;19.40;;;;;;;4.03;63.30;100730.94;5016792;28;20076;-77
2022/04/13 03:31:55;;;;;;;35.25;18.40;;;;;;;3.96;63.23;100748.72;5015068;28;20518;-78
2022/04/13 03:34:22;;;;;;;33.03;19.85;;;;;;;3.93;63.21;100735.50;5015899;28;20093;-77
2022/04/13 03:37:02;;;;;;;35.72;19.70;;;;;;;3.90;64.15;100741.94;5015380;28;20060;-78
2022/04/13 03:39:30;;;;;;;33.05;19.15;;;;;;;3.85;63.81;100746.03;5015408;28;20022;-77
2022/04/13 03:41:57;;;;;;;32.35;19.77;;;;;;;3.83;63.75;100751.31;5014900;28;20029;-77
2022/04/13 03:44:23;;;;;;;40.92;20.95;;;;;;;3.77;63.97;100747.38;4998687;28;20479;-76
2022/04/13 03:46:50;;;;;;;36.85;20.30;;;;;;;3.78;63.84;100751.78;5016731;28;20018;-76
2022/04/13 03:49:16;;;;;;;37.15;20.17;;;;;;;3.73;64.64;100760.69;5016330;28;20368;-77
2022/04/13 03:51:42;;;;;;;38.47;21.98;;;;;;;3.67;64.26;100756.75;4998915;28;20036;-76
2022/04/13 03:54:08;;;;;;;36.30;19.90;;;;;;;3.63;64.75;100747.53;5014786;28;20088;-76
2022/04/13 03:56:36;;;;;;;38.88;20.75;;;;;;;3.66;65.10;100757.16;5016160;28;20125;-78
2022/04/13 03:59:03;;;;;;;38.88;21.98;;;;;;;3.68;64.82;100755.53;5015110;28;20029;-77
2022/04/13 04:01:29;;;;;;;48.17;22.13;;;;;;;3.55;65.00;100739.59;4998837;28;20398;-78
2022/04/13 04:03:55;;;;;;;39.25;22.65;;;;;;;3.64;65.65;100762.44;5014790;28;20050;-77
2022/04/13 04:06:23;;;;;;;46.28;25.15;;;;;;;3.70;64.67;100766.38;5016035;28;20101;-78
2022/04/13 04:08:49;;;;;;;41.92;23.10;;;;;;;3.61;64.83;100749.16;4998714;28;20022;-76
2022/04/13 04:11:15;;;;;;;50.83;23.20;;;;;;;3.72;64.56;100764.72;5016174;28;20025;-77
2022/04/13 04:13:43;;;;;;;48.22;24.25;;;;;;;3.74;65.01;100767.13;4998357;28;20026;-77
2022/04/13 04:16:09;;;;;;;57.90;24.25;;;;;;;3.77;64.60;100772.72;4998058;28;20501;-76
2022/04/13 04:18:36;;;;;;;49.25;25.80;;;;;;;3.60;64.73;100739.16;5015689;28;20033;-77
2022/04/13 04:21:02;;;;;;;50.85;24.27;;;;;;;3.75;65.36;100761.06;5014323;28;20575;-77
2022/04/13 04:23:28;;;;;;;45.38;22.23;;;;;;;3.79;64.60;100767.47;5015650;28;20037;-76
2022/04/13 04:25:54;;;;;;;39.28;22.10;;;;;;;3.88;64.85;100770.56;5030694;28;20083;-76
2022/04/13 04:28:21;;;;;;;41.25;23.10;;;;;;;3.88;64.87;100775.41;4997913;28;20554;-77
2022/04/13 04:30:47;;;;;;;41.67;22.48;;;;;;;3.83;64.40;100751.31;4998134;28;20074;-77
2022/04/13 04:33:16;;;;;;;46.03;22.95;;;;;;;3.96;64.02;100767.66;5014719;28;20022;-76
2022/04/13 04:35:50;;;;;;;51.75;23.35;;;;;;;4.04;64.56;100769.16;4998604;28;20022;-78
2022/04/13 04:38:16;;;;;;;45.67;23.10;;;;;;;4.04;64.28;100764.34;4999299;28;20032;-77
2022/04/13 04:40:42;;;;;;;46.63;23.20;;;;;;;4.12;64.01;100771.47;5015529;28;20029;-76
2022/04/13 04:43:09;;;;;;;52.40;22.10;;;;;;;4.15;64.30;100770.59;5015665;28;20467;-77
2022/04/13 04:45:35;;;;;;;57.88;24.13;;;;;;;4.21;63.99;100780.19;4998186;28;20060;-77
2022/04/13 04:48:04;;;;;;;52.63;26.30;;;;;;;4.14;63.51;100765.41;5014193;28;20062;-77
2022/04/13 04:50:32;;;;;;;59.53;24.25;;;;;;;4.25;63.46;100769.66;5015479;28;20100;-78
2022/04/13 04:52:58;;;;;;;74.03;28.85;;;;;;;4.23;63.49;100755.19;5012551;28;20137;-77
2022/04/13 04:55:23;;;;;;;54.17;27.10;;;;;;;4.34;63.83;100769.91;5015713;28;20053;-76
2022/04/13 04:57:49;;;;;;;61.33;28.38;;;;;;;4.43;62.89;100775.06;5017371;28;20064;-76
2022/04/13 05:00:28;;;;;;;57.97;27.00;;;;;;;4.53;63.47;100784.56;5016067;28;20026;-79
2022/04/13 05:02:54;;;;;;;51.85;24.10;;;;;;;4.62;63.20;100782.81;4998554;28;20030;-75
2022/04/13 05:05:21;;;;;;;56.42;25.80;;;;;;;4.69;62.38;100782.69;5025387;28;20018;-78
2022/04/13 05:07:47;;;;;;;58.40;26.45;;;;;;;4.76;62.42;100776.13;5028565;28;20109;-77
2022/04/13 05:10:12;;;;;;;127.50;33.22;;;;;;;4.87;62.57;100779.59;5007443;28;20053;-77
2022/04/13 05:12:59;;;;;;;67.65;27.10;;;;;;;4.96;62.11;100782.66;5012347;28;20040;-77
2022/04/13 05:15:26;;;;;;;58.53;26.15;;;;;;;5.00;62.01;100777.75;5003366;28;20046;-76
2022/04/13 05:17:51;;;;;;;59.45;26.30;;;;;;;5.12;62.14;100779.16;5000250;28;20028;-76
2022/04/13 05:20:17;;;;;;;54.45;27.23;;;;;;;5.18;61.71;100775.41;5015598;28;20113;-77
2022/04/13 05:22:43;;;;;;;58.00;26.75;;;;;;;5.34;61.52;100777.53;5003544;28;20064;-77
2022/04/13 05:25:13;;;;;;;64.57;28.40;;;;;;;5.43;61.89;100776.97;5014513;28;20033;-77
2022/04/13 05:27:39;;;;;;;61.90;26.77;;;;;;;5.46;61.00;100779.75;4996827;28;20074;-77
2022/04/13 05:30:06;;;;;;;63.63;27.70;;;;;;;5.58;61.12;100783.94;5021629;28;20033;-75
2022/04/13 05:32:57;;;;;;;80.57;28.20;;;;;;;5.71;61.10;100784.09;5027398;28;20028;-78
2022/04/13 05:35:28;;;;;;;65.10;28.55;;;;;;;5.77;60.28;100783.19;5019192;28;20034;-78
2022/04/13 05:37:57;;;;;;;53.10;26.75;;;;;;;5.91;60.04;100784.94;5013469;28;20383;-77
2022/04/13 05:40:23;;;;;;;58.88;26.85;;;;;;;5.96;60.54;100785.22;4998270;28;20471;-77
2022/04/13 05:42:53;;;;;;;56.00;25.83;;;;;;;6.06;60.61;100777.75;5013467;28;20029;-78
2022/04/13 05:45:25;;;;;;;49.40;25.42;;;;;;;6.23;59.60;100784.25;4994569;28;20030;-76
2022/04/13 05:47:50;;;;;;;41.10;23.63;;;;;;;6.30;59.25;100781.28;4994118;28;20089;-78
2022/04/13 05:50:18;;;;;;;41.78;24.70;;;;;;;6.44;59.15;100786.59;4994754;28;20023;-77
2022/04/13 05:52:44;;;;;;;44.90;24.45;;;;;;;6.57;58.68;100787.50;4977079;28;20057;-76
2022/04/13 05:55:10;;;;;;;41.10;23.20;;;;;;;6.65;58.33;100788.94;4994460;28;20038;-77
2022/04/13 05:57:36;;;;;;;52.63;25.70;;;;;;;6.70;57.40;100785.59;4995545;28;20050;-80
2022/04/13 06:00:05;;;;;;;70.22;26.52;;;;;;;6.83;57.15;100786.47;4977421;28;20140;-80
2022/04/13 06:02:31;;;;;;;81.50;29.67;;;;;;;7.01;57.21;100786.03;4993844;28;20073;-79
2022/04/13 06:05:00;;;;;;;69.78;26.23;;;;;;;7.09;56.59;100781.00;4985566;28;20054;-83
2022/04/13 06:07:26;;;;;;;167.90;37.00;;;;;;;7.26;56.68;100771.22;5028007;28;20038;-82
2022/04/13 06:09:54;;;;;;;49.30;25.17;;;;;;;7.38;56.00;100793.97;5012770;28;20030;-81
2022/04/13 06:12:37;;;;;;;46.50;26.55;;;;;;;7.56;56.20;100787.00;5015069;28;20034;-80
2022/04/13 06:15:10;;;;;;;40.03;24.80;;;;;;;7.74;55.64;100790.16;5013662;28;20032;-81
2022/04/13 06:17:36;;;;;;;47.30;25.05;;;;;;;7.88;55.02;100792.59;5018863;28;20507;-84
2022/04/13 06:20:04;;;;;;;47.90;26.38;;;;;;;8.06;55.80;100789.25;5016251;28;20085;-80
2022/04/13 06:22:31;;;;;;;59.58;28.45;;;;;;;8.17;54.95;100796.19;5017002;28;20096;-81
2022/04/13 06:24:57;;;;;;;66.38;27.27;;;;;;;8.10;55.02;100753.84;5007247;28;20041;-83
2022/04/13 06:27:22;;;;;;;60.53;30.13;;;;;;;8.52;54.69;100768.81;5009134;28;20525;-82
2022/04/13 06:29:48;;;;;;;43.47;26.70;;;;;;;8.69;54.36;100775.16;5021894;28;20117;-82
2022/04/13 06:32:14;;;;;;;54.33;26.40;;;;;;;9.07;53.77;100786.50;5025681;28;20033;-82
2022/04/13 06:34:40;;;;;;;51.63;26.40;;;;;;;9.33;52.29;100751.06;5011129;28;20026;-82
2022/04/13 06:37:05;;;;;;;56.08;26.92;;;;;;;10.25;51.90;100781.03;5021619;28;20030;-82
2022/04/13 06:39:31;;;;;;;47.00;27.05;;;;;;;11.05;47.79;100772.53;5019965;28;20479;-82
2022/04/13 06:41:57;;;;;;;45.15;25.20;;;;;;;12.45;46.69;100761.75;5021168;28;20034;-82
2022/04/13 06:44:23;;;;;;;44.45;24.83;;;;;;;14.22;40.55;100763.28;5026165;28;20485;-82
2022/04/13 06:46:49;;;;;;;45.40;25.70;;;;;;;15.71;37.10;100758.31;5007853;28;20044;-83
2022/04/13 06:49:14;;;;;;;42.72;25.58;;;;;;;16.03;35.17;100758.41;5025828;28;20057;-84
2022/04/13 06:51:39;;;;;;;41.25;24.80;;;;;;;16.69;34.15;100755.38;5025611;28;20048;-83
2022/04/13 06:54:06;;;;;;;50.90;28.45;;;;;;;17.73;34.30;100768.09;5025202;28;20499;-84
2022/04/13 06:56:33;;;;;;;44.13;25.85;;;;;;;18.87;29.69;100770.16;5025755;28;20041;-82
2022/04/13 06:58:59;;;;;;;41.55;26.98;;;;;;;19.54;28.11;100783.69;5025109;28;20451;-82
2022/04/13 07:01:25;;;;;;;37.08;24.45;;;;;;;20.33;28.77;100791.50;5006692;28;20033;-82
2022/04/13 07:03:51;;;;;;;38.08;25.92;;;;;;;20.58;26.69;100789.50;5025045;28;20029;-83
2022/04/13 07:06:17;;;;;;;34.58;25.23;;;;;;;21.25;28.06;100789.75;5026301;28;20029;-82
2022/04/13 07:08:42;;;;;;;40.20;25.80;;;;;;;22.13;25.84;100784.22;5029288;28;20018;-82
2022/04/13 07:11:07;;;;;;;40.20;25.75;;;;;;;22.83;26.26;100782.13;5030322;28;20048;-82
2022/04/13 07:13:35;;;;;;;47.65;25.02;;;;;;;23.52;25.10;100792.81;5032917;28;20022;-83
2022/04/13 07:16:00;;;;;;;40.42;25.40;;;;;;;24.01;23.93;100787.28;5032615;28;20025;-82
2022/04/13 07:18:26;;;;;;;41.63;26.80;;;;;;;23.97;22.71;100783.94;5031214;28;20017;-82
2022/04/13 07:20:54;;;;;;;38.25;24.90;;;;;;;24.06;23.31;100781.34;5028634;28;20474;-82
2022/04/13 07:23:20;;;;;;;38.45;23.92;;;;;;;24.27;22.32;100784.38;5030945;28;20018;-81
2022/04/13 07:25:45;;;;;;;32.35;24.02;;;;;;;24.29;22.74;100775.81;5025138;28;20022;-81
2022/04/13 07:28:12;;;;;;;36.55;24.17;;;;;;;24.62;22.35;100797.56;5024130;28;20045;-82
2022/04/13 07:30:37;;;;;;;40.70;25.90;;;;;;;25.11;21.38;100788.16;5028584;28;20018;-82
2022/04/13 07:33:02;;;;;;;32.88;23.63;;;;;;;25.21;21.63;100792.91;5030506;28;20583;-83
2022/04/13 07:35:29;;;;;;;47.13;24.92;;;;;;;24.43;21.64;100794.81;5024806;28;20459;-81
2022/04/13 07:37:55;;;;;;;40.42;24.55;;;;;;;24.94;22.92;100795.22;5024218;28;20026;-82
2022/04/13 07:40:22;;;;;;;42.13;24.85;;;;;;;25.63;20.14;100801.63;5025028;28;20038;-81
2022/04/13 07:42:47;;;;;;;34.00;24.20;;;;;;;25.54;20.65;100787.53;5005633;28;20025;-81
2022/04/13 07:45:14;;;;;;;48.50;25.85;;;;;;;25.70;21.01;100804.56;5023793;28;20432;-81
2022/04/13 07:47:42;;;;;;;35.17;23.95;;;;;;;25.40;20.83;100795.59;5008633;28;20037;-80
2022/04/13 07:50:12;;;;;;;37.67;24.15;;;;;;;24.96;20.77;100755.97;5022894;28;20072;-81
2022/04/13 07:52:39;;;;;;;35.83;23.65;;;;;;;25.36;20.75;100795.16;5010300;28;20510;-80
2022/04/13 07:55:09;;;;;;;31.67;22.65;;;;;;;25.24;20.17;100791.00;5013047;28;20104;-80
2022/04/13 07:57:57;;;;;;;33.42;22.38;;;;;;;25.36;19.62;100801.00;5014300;28;20479;-81
2022/04/13 08:00:23;;;;;;;33.40;23.35;;;;;;;24.77;21.12;100783.13;4996081;28;20053;-81
2022/04/13 08:02:49;;;;;;;34.65;23.65;;;;;;;25.07;20.48;100785.59;5017148;28;20045;-80
2022/04/13 08:05:15;;;;;;;38.40;24.02;;;;;;;25.16;20.71;100781.41;5015891;28;20072;-79
2022/04/13 08:07:45;;;;;;;32.35;23.10;;;;;;;25.22;20.83;100800.31;5016112;28;20022;-79
2022/04/13 08:10:12;;;;;;;35.75;25.45;;;;;;;25.27;20.86;100793.53;4978843;28;20074;-80
2022/04/13 08:12:39;;;;;;;38.88;23.27;;;;;;;25.69;20.28;100791.38;4995163;28;20065;-80
2022/04/13 08:15:07;;;;;;;34.38;25.35;;;;;;;25.82;20.50;100772.16;5011067;28;20449;-81
2022/04/13 08:17:33;;;;;;;34.75;24.63;;;;;;;25.50;20.43;100801.69;4994202;28;20038;-81
2022/04/13 08:19:59;;;;;;;35.88;24.42;;;;;;;25.29;22.14;100787.16;5011128;28;20100;-80
2022/04/13 08:22:25;;;;;;;31.85;22.33;;;;;;;25.59;19.88;100796.16;4995479;28;20458;-80
2022/04/13 08:24:50;;;;;;;31.90;24.13;;;;;;;25.42;21.00;100789.97;5013872;28;20037;-83
2022/04/13 08:27:16;;;;;;;33.33;24.13;;;;;;;25.48;20.19;100789.81;5014733;28;20494;-81
2022/04/13 08:29:41;;;;;;;36.58;25.60;;;;;;;25.38;20.93;100799.09;4998001;28;20459;-81
2022/04/13 08:32:08;;;;;;;39.92;24.98;;;;;;;25.32;21.31;100783.84;5014431;28;20030;-80
2022/04/13 08:34:55;;;;;;;34.33;23.15;;;;;;;24.72;20.49;100798.63;5015831;28;20075;-81
2022/04/13 08:37:22;;;;;;;41.25;24.20;;;;;;;24.74;21.74;100780.59;5026059;28;20460;-81
2022/04/13 08:39:50;;;;;;;38.92;23.80;;;;;;;24.99;21.28;100778.94;5023766;28;20364;-82
2022/04/13 08:42:38;;;;;;;63.33;24.75;;;;;;;25.23;21.30;100775.63;5015919;28;20083;-79
2022/04/13 08:45:35;;;;;;;36.88;22.65;;;;;;;24.97;20.84;100780.81;5017126;28;20371;-82
2022/04/13 08:48:03;;;;;;;36.20;21.80;;;;;;;25.27;21.57;100775.25;5012968;28;20367;-76
2022/04/13 08:50:34;;;;;;;34.00;22.48;;;;;;;24.79;21.71;100773.84;5019469;28;20038;-80
2022/04/13 08:53:06;;;;;;;34.00;21.88;;;;;;;25.04;21.63;100769.25;5016689;28;20064;-80
2022/04/13 08:55:37;;;;;;;37.97;20.75;;;;;;;24.96;21.60;100750.13;5019298;28;20034;-81
2022/04/13 08:58:09;;;;;;;37.20;23.42;;;;;;;25.08;21.53;100774.72;5017781;28;20029;-81
2022/04/13 09:00:42;;;;;;;31.42;21.45;;;;;;;24.77;21.65;100756.91;5012965;28;20057;-81
2022/04/13 09:03:26;;;;;;;35.85;22.05;;;;;;;24.34;21.53;100765.41;4999613;28;20398;-78
2022/04/13 09:05:57;;;;;;;38.67;21.23;;;;;;;24.00;23.25;100751.56;4996424;28;20034;-78
2022/04/13 09:09:00;;;;;;;33.57;20.53;;;;;;;24.33;22.48;100764.59;5005608;28;20169;-79
2022/04/13 09:11:28;;;;;;;33.55;22.42;;;;;;;24.01;22.46;100747.31;4935825;29;20363;-77
2022/04/13 09:13:54;;;;;;;37.05;22.33;;;;;;;23.93;22.54;100763.88;4914833;28;20039;-80
2022/04/13 09:16:20;;;;;;;32.80;22.17;;;;;;;23.43;23.46;100767.03;4978177;28;20033;-78
2022/04/13 09:18:46;;;;;;;35.78;20.48;;;;;;;23.35;23.51;100740.75;4994797;28;20101;-76
2022/04/13 09:21:17;;;;;;;29.90;21.73;;;;;;;23.45;23.39;100765.16;5013300;28;20041;-82
2022/04/13 09:23:44;;;;;;;;;;;;;;;23.14;23.47;100760.16;5014485;28;20078;-80
2022/04/13 09:26:11;;;;;;;36.30;23.00;;;;;;;22.90;23.90;100755.31;5017382;28;19914;-80
2022/04/13 09:28:37;;;;;;;34.72;23.50;;;;;;;22.85;24.09;100753.28;5016892;28;20026;-79
2022/04/13 09:31:17;;;;;;;42.38;23.55;;;;;;;22.82;24.31;100760.22;5012858;28;20045;-79
2022/04/13 09:33:43;;;;;;;39.90;22.88;;;;;;;22.34;25.11;100759.13;4995675;28;20042;-78
2022/04/13 09:36:12;;;;;;;37.85;21.75;;;;;;;22.24;24.63;100751.38;5015825;28;20438;-79
2022/04/13 09:38:54;;;;;;;30.13;21.15;;;;;;;21.94;24.76;100757.31;5000490;28;20388;-81
2022/04/13 09:41:36;;;;;;;30.60;19.75;;;;;;;21.87;24.77;100763.69;5021437;28;20117;-80
2022/04/13 09:44:10;;;;;;;35.33;20.90;;;;;;;21.94;25.55;100754.41;5025646;28;20439;-80
2022/04/13 09:46:38;;;;;;;43.50;21.92;;;;;;;22.13;25.61;100754.41;5022625;28;20060;-77
2022/04/13 09:49:08;;;;;;;34.20;22.67;;;;;;;22.10;25.46;100747.59;5026520;28;20026;-76
2022/04/13 09:51:44;;;;;;;29.98;21.08;;;;;;;21.91;25.05;100761.28;4998825;28;20069;-81
2022/04/13 09:54:12;;;;;;;30.95;20.02;;;;;;;21.75;26.05;100744.88;4998621;28;20058;-80
2022/04/13 09:56:58;;;;;;;37.65;22.08;;;;;;;21.86;26.65;100744.72;5015825;28;20034;-78
2022/04/13 09:59:30;;;;;;;34.70;20.50;;;;;;;21.87;25.69;100746.28;5021115;28;20049;-79
2022/04/13 10:01:57;;;;;;;36.15;19.92;;;;;;;21.77;25.16;100734.28;5024406;28;20079;-79
2022/04/13 10:04:38;;;;;;;31.80;19.65;;;;;;;21.71;26.27;100735.72;5023567;28;20033;-79
2022/04/13 10:07:14;;;;;;;;;;;;;;;21.89;25.77;100735.72;5015686;28;20108;-80
2022/04/13 10:09:41;;;;;;;28.77;19.48;;;;;;;21.89;27.30;100727.03;5020026;28;19983;-76
2022/04/13 10:12:09;;;;;;;35.90;18.70;;;;;;;21.60;25.79;100730.84;5015069;28;20061;-81
2022/04/13 10:14:55;;;;;;;26.52;17.65;;;;;;;21.59;25.68;100734.28;5015155;28;20066;-81
2022/04/13 10:17:23;;;;;;;24.83;15.70;;;;;;;21.21;24.98;100724.72;5016495;28;20320;-79
2022/04/13 10:19:57;;;;;;;36.45;17.40;;;;;;;21.29;25.63;100740.16;5018984;28;20447;-77
2022/04/13 10:22:23;;;;;;;30.73;17.80;;;;;;;20.63;26.34;100737.34;5004913;28;20068;-76
2022/04/13 10:24:49;;;;;;;26.40;15.77;;;;;;;20.39;25.71;100740.16;5027450;28;20497;-77
2022/04/13 10:27:21;;;;;;;26.25;16.83;;;;;;;20.22;27.24;100730.81;5013575;28;20061;-76
2022/04/13 10:29:48;;;;;;;27.45;16.17;;;;;;;20.13;27.52;100726.09;5012790;28;20040;-77
2022/04/13 10:32:17;;;;;;;34.15;19.88;;;;;;;20.33;28.54;100721.25;5012030;28;20026;-78
2022/04/13 10:34:59;;;;;;;28.02;16.50;;;;;;;20.48;28.67;100733.25;5013282;28;20341;-77
2022/04/13 10:37:27;;;;;;;34.33;15.75;;;;;;;20.52;26.79;100731.63;4997642;28;20036;-79
2022/04/13 10:40:00;;;;;;;31.70;16.20;;;;;;;20.51;27.27;100737.97;5032183;28;20441;-78
2022/04/13 10:42:35;;;;;;;30.10;14.93;;;;;;;20.61;27.71;100728.44;5033514;28;20029;-78
2022/04/13 10:45:09;;;;;;;23.25;14.75;;;;;;;20.61;28.33;100733.44;5032692;28;20029;-77
2022/04/13 10:47:58;;;;;;;25.10;15.60;;;;;;;20.60;26.69;100723.97;5033818;28;20048;-78
2022/04/13 10:50:32;;;;;;;42.55;19.17;;;;;;;20.24;27.56;100728.16;5028698;28;20034;-77
2022/04/13 10:53:20;;;;;;;25.20;15.73;;;;;;;20.37;28.67;100727.56;5032057;28;20041;-78
2022/04/13 10:56:06;;;;;;;27.25;15.50;;;;;;;20.23;26.12;100726.56;5032776;28;20037;-78
2022/04/13 10:59:06;;;;;;;36.22;15.93;;;;;;;20.15;27.29;100729.25;5032288;28;20459;-77
2022/04/13 11:01:38;;;;;;;22.27;14.10;;;;;;;20.06;29.42;100726.69;5014132;28;20448;-78
2022/04/13 11:04:06;;;;;;;32.33;16.48;;;;;;;19.86;26.20;100724.19;5012139;28;20026;-76
2022/04/13 11:06:35;;;;;;;26.58;15.30;;;;;;;19.35;26.87;100719.91;4996115;28;20423;-78
2022/04/13 11:09:04;;;;;;;25.35;14.20;;;;;;;19.16;28.56;100716.03;5011869;28;20042;-77
2022/04/13 11:11:31;;;;;;;27.10;15.70;;;;;;;18.91;27.98;100721.59;5011966;28;20498;-77
2022/04/13 11:14:01;;;;;;;32.30;17.10;;;;;;;18.69;29.31;100723.72;5011238;28;20027;-78
2022/04/13 11:16:28;;;;;;;30.35;18.05;;;;;;;18.65;29.89;100723.22;5011816;28;20022;-78
2022/04/13 11:19:05;;;;;;;25.45;15.13;;;;;;;18.46;29.14;100717.13;5013533;28;20391;-77
2022/04/13 11:21:57;;;;;;;31.83;15.07;;;;;;;18.59;29.43;100708.00;5013240;28;20033;-79
2022/04/13 11:24:46;;;;;;;47.17;17.98;;;;;;;18.62;30.15;100706.94;5012075;28;20487;-77